createdAt,value
2023-02-05T00:04:27.481Z,3.47
2023-02-05T00:09:31.012Z,3.27
2023-02-05T00:14:34.802Z,3.80
2023-02-05T00:19:38.037Z,4.67
2023-02-05T00:24:41.514Z,4.17
2023-02-05T00:29:44.719Z,3.23
2023-02-05T00:34:47.873Z,3.60
2023-02-05T00:39:50.971Z,3.00
2023-02-05T00:44:54.101Z,2.00
2023-02-05T00:49:57.300Z,1.97
2023-02-05T00:55:00.414Z,2.17
2023-02-05T01:00:04.149Z,3.00
2023-02-05T01:05:08.145Z,2.10
2023-02-05T01:10:11.539Z,2.20
2023-02-05T01:15:14.979Z,2.20
2023-02-05T01:20:19.483Z,2.73
2023-02-05T01:25:22.919Z,2.20
2023-02-05T01:30:26.108Z,2.60
2023-02-05T01:35:29.234Z,3.20
2023-02-05T01:40:32.468Z,3.10
2023-02-05T01:46:07.889Z,2.53
2023-02-05T01:51:14.333Z,2.93
2023-02-05T01:56:40.374Z,3.97
2023-02-05T02:01:44.537Z,3.73
2023-02-05T02:06:47.957Z,4.03
2023-02-05T02:11:51.530Z,4.03
2023-02-05T02:16:55.873Z,3.93
2023-02-05T02:22:31.520Z,4.33
2023-02-05T02:28:18.238Z,3.27
2023-02-05T02:33:50.579Z,4.27
2023-02-05T02:39:01.847Z,4.07
2023-02-05T02:44:14.971Z,4.13
2023-02-05T02:49:41.205Z,4.40
2023-02-05T02:54:48.187Z,4.67
2023-02-05T02:59:54.166Z,3.70
2023-02-05T03:05:07.557Z,3.67
2023-02-05T03:10:23.070Z,3.60
2023-02-05T03:15:26.337Z,5.10
2023-02-05T03:20:35.390Z,5.23
2023-02-05T03:25:38.770Z,4.53
2023-02-05T03:31:22.326Z,4.10
2023-02-05T03:36:51.459Z,3.57
2023-02-05T03:42:04.048Z,4.30
2023-02-05T03:47:42.673Z,4.30
2023-02-05T03:52:53.991Z,6.27
2023-02-05T03:58:06.924Z,6.03
2023-02-05T04:03:10.388Z,4.63
2023-02-05T04:08:13.860Z,8.07
2023-02-05T04:13:17.141Z,7.13
2023-02-05T04:18:20.655Z,6.30
2023-02-05T04:23:24.058Z,9.30
2023-02-05T04:28:27.514Z,11.43
2023-02-05T04:33:30.774Z,9.87
2023-02-05T04:38:34.165Z,9.57
2023-02-05T04:43:37.323Z,8.67
2023-02-05T04:48:40.840Z,6.30
2023-02-05T04:53:44.237Z,5.03
2023-02-05T04:58:47.444Z,5.63
2023-02-05T05:03:51.386Z,4.83
2023-02-05T05:08:54.977Z,6.00
2023-02-05T05:13:58.446Z,5.73
2023-02-05T05:19:01.551Z,4.87
2023-02-05T05:24:04.967Z,6.23
2023-02-05T05:29:08.176Z,3.63
2023-02-05T05:34:11.366Z,5.67
2023-02-05T05:39:34.467Z,4.40
2023-02-05T05:44:37.701Z,4.97
2023-02-05T05:49:40.805Z,4.40
2023-02-05T05:54:44.224Z,4.13
2023-02-05T05:59:47.402Z,3.83
2023-02-05T06:04:50.898Z,3.87
2023-02-05T06:09:57.130Z,3.70
2023-02-05T06:15:00.251Z,4.40
2023-02-05T06:20:03.570Z,3.20
2023-02-05T06:25:07.395Z,4.37
2023-02-05T06:30:12.116Z,4.27
2023-02-05T06:35:16.013Z,4.07
2023-02-05T06:40:22.589Z,4.30
2023-02-05T06:45:25.877Z,3.60
2023-02-05T06:50:29.071Z,3.47
2023-02-05T06:55:32.422Z,4.03
2023-02-05T07:00:36.272Z,3.40
2023-02-05T07:05:39.358Z,5.30
2023-02-05T07:10:42.513Z,4.60
2023-02-05T07:15:46.317Z,4.80
2023-02-05T07:20:49.566Z,4.57
2023-02-05T07:25:52.949Z,6.03
2023-02-05T07:30:56.183Z,5.93
2023-02-05T07:36:02.797Z,5.23
2023-02-05T07:41:12.156Z,6.13
2023-02-05T07:46:18.252Z,5.83
2023-02-05T07:51:25.350Z,6.80
2023-02-05T07:56:30.463Z,6.10
2023-02-05T08:01:34.303Z,7.63
2023-02-05T08:06:38.279Z,7.33
2023-02-05T08:11:41.395Z,7.27
2023-02-05T08:16:44.666Z,7.47
2023-02-05T08:21:47.920Z,7.03
2023-02-05T08:26:51.072Z,8.80
2023-02-05T08:31:54.754Z,12.97
2023-02-05T08:36:58.465Z,10.73
2023-02-05T08:42:02.194Z,11.90
2023-02-05T08:47:05.703Z,11.10
2023-02-05T08:52:08.844Z,10.67
2023-02-05T08:57:12.183Z,12.10
2023-02-05T09:02:16.433Z,10.53
2023-02-05T09:07:19.614Z,9.53
2023-02-05T09:12:23.281Z,11.27
2023-02-05T09:17:27.179Z,8.93
2023-02-05T09:22:30.393Z,11.37
2023-02-05T09:27:33.808Z,11.47
2023-02-05T09:32:37.996Z,9.87
2023-02-05T09:37:41.066Z,9.00
2023-02-05T09:43:09.499Z,9.10
2023-02-05T09:48:49.978Z,10.10
2023-02-05T09:53:57.758Z,9.97
2023-02-05T09:59:00.930Z,12.67
2023-02-05T10:04:06.645Z,11.20
2023-02-05T10:09:19.923Z,11.53
2023-02-05T10:14:49.480Z,12.93
2023-02-05T10:20:26.581Z,11.33
2023-02-05T10:25:50.624Z,11.30
2023-02-05T10:31:11.726Z,11.87
2023-02-05T10:36:16.988Z,10.40
2023-02-05T10:41:28.816Z,9.93
2023-02-05T10:46:35.882Z,9.47
2023-02-05T10:51:43.018Z,10.93
2023-02-05T10:56:46.845Z,9.90
2023-02-05T11:01:52.092Z,10.10
2023-02-05T11:06:55.475Z,10.80
2023-02-05T11:12:03.349Z,9.07
2023-02-05T11:17:25.153Z,10.00
2023-02-05T11:22:46.853Z,8.17
2023-02-05T11:28:01.774Z,8.90
2023-02-05T11:33:23.583Z,9.13
2023-02-05T11:38:54.364Z,9.57
2023-02-05T11:44:01.382Z,8.40
2023-02-05T11:49:05.595Z,8.33
2023-02-05T11:54:31.345Z,8.30
2023-02-05T11:59:36.784Z,8.77
2023-02-05T12:04:47.645Z,7.13
2023-02-05T12:09:56.048Z,5.83
2023-02-05T12:15:21.090Z,6.37
2023-02-05T12:20:31.108Z,7.37
2023-02-05T12:26:06.788Z,6.77
2023-02-05T12:31:41.441Z,8.07
2023-02-05T12:36:54.296Z,7.83
2023-02-05T12:42:17.190Z,7.27
2023-02-05T12:47:36.492Z,8.27
2023-02-05T12:53:16.034Z,10.07
2023-02-05T12:58:21.399Z,9.03
2023-02-05T13:03:30.505Z,8.53
2023-02-05T13:08:49.507Z,8.70
2023-02-05T13:14:09.758Z,9.33
2023-02-05T13:19:27.304Z,11.73
2023-02-05T13:25:24.667Z,11.97
2023-02-05T13:30:45.013Z,9.40
2023-02-05T13:36:25.541Z,10.43
2023-02-05T13:41:49.235Z,11.03
2023-02-05T13:47:20.299Z,10.10
2023-02-05T13:52:46.487Z,11.23
2023-02-05T13:58:15.943Z,9.20
2023-02-05T14:03:34.062Z,8.13
2023-02-05T14:08:40.834Z,8.60
2023-02-05T14:14:33.866Z,7.90
2023-02-05T14:19:47.308Z,7.80
2023-02-05T14:24:51.868Z,7.73
2023-02-05T14:29:57.999Z,8.07
2023-02-05T14:35:04.197Z,8.23
2023-02-05T14:40:30.140Z,7.60
2023-02-05T14:45:36.280Z,10.07
2023-02-05T14:50:42.507Z,10.40
2023-02-05T14:55:50.944Z,9.53
2023-02-05T15:01:52.291Z,10.73
2023-02-05T15:07:02.011Z,8.10
2023-02-05T15:12:09.124Z,7.27
2023-02-05T15:17:15.912Z,6.57
2023-02-05T15:22:44.595Z,6.83
2023-02-05T15:28:07.915Z,6.27
2023-02-05T15:33:32.444Z,6.03
2023-02-05T15:38:47.083Z,6.17
2023-02-05T15:44:03.881Z,6.50
2023-02-05T15:49:10.036Z,7.53
2023-02-05T15:54:21.236Z,6.73
2023-02-05T15:59:32.379Z,6.93
2023-02-05T16:04:42.082Z,5.93
2023-02-05T16:09:50.298Z,5.43
2023-02-05T16:15:02.087Z,6.10
2023-02-05T16:20:19.835Z,6.60
2023-02-05T16:26:05.830Z,7.67
2023-02-05T16:31:26.002Z,7.10
2023-02-05T16:36:43.837Z,9.63
2023-02-05T16:42:08.080Z,8.97
2023-02-05T16:47:14.799Z,7.70
2023-02-05T16:52:33.933Z,6.93
2023-02-05T16:57:41.786Z,7.93
2023-02-05T17:02:50.648Z,8.30
2023-02-05T17:07:59.622Z,7.97
2023-02-05T17:13:07.183Z,8.17
2023-02-05T17:18:27.816Z,8.67
2023-02-05T17:23:36.261Z,9.50
2023-02-05T17:28:45.675Z,8.30
2023-02-05T17:33:53.893Z,11.50
2023-02-05T17:39:04.678Z,9.93
2023-02-05T17:44:23.861Z,8.93
2023-02-05T17:49:29.607Z,12.20
2023-02-05T17:54:35.615Z,15.57
2023-02-05T17:59:43.074Z,14.30
2023-02-05T18:04:50.475Z,13.53
2023-02-05T18:09:55.935Z,14.13
2023-02-05T18:15:07.218Z,15.50
2023-02-05T18:20:14.124Z,16.57
2023-02-05T18:25:20.077Z,17.07
2023-02-05T18:30:25.115Z,15.00
2023-02-05T18:35:33.892Z,14.40
2023-02-05T18:40:39.459Z,14.80
2023-02-05T18:45:48.079Z,13.20
2023-02-05T18:50:52.846Z,14.30
2023-02-05T18:56:07.523Z,13.93
2023-02-05T19:01:40.628Z,19.37
2023-02-05T19:06:54.334Z,16.90
2023-02-05T19:12:00.034Z,20.90
2023-02-05T19:17:05.270Z,20.93
2023-02-05T19:22:11.150Z,19.20
2023-02-05T19:27:18.309Z,20.83
2023-02-05T19:32:26.108Z,21.10
2023-02-05T19:37:34.327Z,18.43
2023-02-05T19:42:43.691Z,19.60
2023-02-05T19:47:52.039Z,15.97
2023-02-05T19:53:02.434Z,18.80
2023-02-05T19:58:07.796Z,17.80
2023-02-05T20:03:12.575Z,18.07
2023-02-05T20:08:20.636Z,16.40
2023-02-05T20:13:39.515Z,21.33
2023-02-05T20:18:45.289Z,20.83
2023-02-05T20:23:52.391Z,19.80
2023-02-05T20:29:18.481Z,20.53
2023-02-05T20:34:35.543Z,23.40
2023-02-05T20:39:44.267Z,23.10
2023-02-05T20:44:50.049Z,19.83
2023-02-05T20:49:55.129Z,21.53
2023-02-05T20:55:02.689Z,21.80
2023-02-05T21:00:12.379Z,23.30
2023-02-05T21:05:21.150Z,20.80
2023-02-05T21:10:25.950Z,21.87
2023-02-05T21:15:33.197Z,21.57
2023-02-05T21:20:39.209Z,21.53
2023-02-05T21:25:43.226Z,21.47
2023-02-05T21:30:52.414Z,24.13
2023-02-05T21:35:58.958Z,22.93
2023-02-05T21:41:17.530Z,21.97
2023-02-05T21:46:22.491Z,23.13
2023-02-05T21:51:29.391Z,22.97
2023-02-05T21:56:39.166Z,25.70
2023-02-05T22:01:43.617Z,22.83
2023-02-05T22:06:47.836Z,23.43
2023-02-05T22:11:52.013Z,25.03
2023-02-05T22:16:55.676Z,25.13
2023-02-05T22:21:58.998Z,25.43
2023-02-05T22:27:03.095Z,24.87
2023-02-05T22:32:08.000Z,25.57
2023-02-05T22:37:58.014Z,23.27
2023-02-05T22:43:01.559Z,24.27
2023-02-05T22:48:04.933Z,24.93
2023-02-05T22:53:09.374Z,23.23
2023-02-05T22:58:13.035Z,26.00
2023-02-05T23:03:16.452Z,24.17
2023-02-05T23:08:20.273Z,26.10
2023-02-05T23:13:23.732Z,26.50
2023-02-05T23:18:27.229Z,24.00
2023-02-05T23:23:30.519Z,24.90
2023-02-05T23:28:34.188Z,25.43
2023-02-05T23:33:38.039Z,23.97
2023-02-05T23:38:41.451Z,23.57
2023-02-05T23:43:44.928Z,23.27
2023-02-05T23:48:48.232Z,22.70
2023-02-05T23:53:51.956Z,22.60
2023-02-05T23:58:55.953Z,23.57
